createdAt,value
2018-09-26T00:03:01.804Z,10.5
2018-09-26T00:07:58.786Z,10.5
2018-09-26T00:12:55.516Z,10.4
2018-09-26T00:17:52.792Z,11
2018-09-26T00:22:49.704Z,10.9
2018-09-26T00:27:46.657Z,10.3
2018-09-26T00:32:43.606Z,10.2
2018-09-26T00:37:40.672Z,10.2
2018-09-26T00:42:37.613Z,10.1
2018-09-26T00:47:34.716Z,10.1
2018-09-26T00:52:31.657Z,10.1
2018-09-26T00:57:28.426Z,10
2018-09-26T01:02:25.454Z,10
2018-09-26T01:07:22.320Z,9.9
2018-09-26T01:12:18.644Z,9.9
2018-09-26T01:17:15.761Z,9.8
2018-09-26T01:22:12.918Z,9.8
2018-09-26T01:27:09.891Z,9.8
2018-09-26T01:32:06.906Z,9.7
2018-09-26T01:37:03.793Z,9.7
2018-09-26T01:42:00.774Z,9.7
2018-09-26T01:46:57.494Z,9.6
2018-09-26T01:51:54.535Z,9.6
2018-09-26T01:56:51.731Z,10.1
2018-09-26T02:01:48.786Z,9.5
2018-09-26T02:06:45.983Z,9.8
2018-09-26T02:11:42.855Z,9.4
2018-09-26T02:16:39.851Z,9.3
2018-09-26T02:21:36.734Z,9.4
2018-09-26T02:26:33.819Z,9.3
2018-09-26T02:31:30.880Z,9.5
2018-09-26T02:36:28.092Z,9.2
2018-09-26T02:41:24.741Z,9.1
2018-09-26T02:46:21.801Z,9.1
2018-09-26T02:51:18.752Z,9.7
2018-09-26T02:56:15.725Z,9.5
2018-09-26T03:01:12.649Z,9.6
2018-09-26T03:06:09.291Z,9.6
2018-09-26T03:11:06.258Z,9.5
2018-09-26T03:16:03.158Z,9.1
2018-09-26T03:20:59.985Z,9.4
2018-09-26T03:25:56.789Z,9.4
2018-09-26T03:30:53.573Z,9.3
2018-09-26T03:35:50.559Z,9.3
2018-09-26T03:40:47.482Z,9.3
2018-09-26T03:45:44.377Z,9.2
2018-09-26T03:50:41.271Z,9.2
2018-09-26T03:55:38.437Z,9.1
2018-09-26T04:00:35.320Z,9.1
2018-09-26T04:05:32.190Z,9.1
2018-09-26T04:10:29.149Z,9
2018-09-26T04:15:26.323Z,9
2018-09-26T04:20:23.365Z,9
2018-09-26T04:25:20.566Z,8.1
2018-09-26T04:30:17.667Z,8.9
2018-09-26T04:35:14.766Z,8.9
2018-09-26T04:40:11.880Z,8.8
2018-09-26T04:45:08.868Z,8.8
2018-09-26T04:50:05.782Z,8.8
2018-09-26T04:55:02.714Z,8.7
2018-09-26T04:59:59.791Z,8.7
2018-09-26T05:04:56.838Z,8.7
2018-09-26T05:09:53.877Z,8.7
2018-09-26T05:14:51.047Z,8.7
2018-09-26T05:19:48.314Z,8.7
2018-09-26T05:24:45.330Z,8.7
2018-09-26T05:29:42.335Z,8.7
2018-09-26T05:34:39.363Z,8.7
2018-09-26T05:39:36.550Z,8.6
2018-09-26T05:44:33.741Z,8.6
2018-09-26T05:49:30.815Z,8.6
2018-09-26T05:54:27.906Z,8.6
2018-09-26T05:59:25.169Z,8.6
2018-09-26T06:04:22.136Z,8.6
2018-09-26T06:09:19.340Z,7.5
2018-09-26T06:14:16.348Z,7.7
2018-09-26T06:19:13.391Z,8.6
2018-09-26T06:24:10.357Z,8
2018-09-26T06:29:07.394Z,8.6
2018-09-26T06:34:04.399Z,7.2
2018-09-26T06:39:01.532Z,7.5
2018-09-26T06:43:58.155Z,8.7
2018-09-26T06:48:54.927Z,8
2018-09-26T06:53:51.989Z,8.7
2018-09-26T06:58:49.051Z,8.8
2018-09-26T07:03:46.292Z,8.8
2018-09-26T07:08:43.201Z,8.1
2018-09-26T07:13:40.356Z,8.8
2018-09-26T07:18:37.328Z,8.9
2018-09-26T07:23:34.447Z,8.9
2018-09-26T07:28:31.346Z,9
2018-09-26T07:33:28.343Z,9
2018-09-26T07:38:25.514Z,9.1
2018-09-26T07:43:22.891Z,9.1
2018-09-26T07:48:20.005Z,9.2
2018-09-26T07:53:17.175Z,9.3
2018-09-26T07:58:14.379Z,9.4
2018-09-26T08:03:11.949Z,9.5
2018-09-26T08:08:09.095Z,9.6
2018-09-26T08:13:06.196Z,9.6
2018-09-26T08:18:03.277Z,9.7
2018-09-26T08:22:59.908Z,9.8
2018-09-26T08:27:56.740Z,9.9
2018-09-26T08:32:53.832Z,9.6
2018-09-26T08:37:50.945Z,9.4
2018-09-26T08:42:48.112Z,9.5
2018-09-26T08:47:45.319Z,9.6
2018-09-26T08:52:42.386Z,9.6
2018-09-26T08:57:39.429Z,10.3
2018-09-26T09:02:36.617Z,9.8
2018-09-26T09:07:33.854Z,9.8
2018-09-26T09:12:30.943Z,9.9
2018-09-26T09:17:28.102Z,10
2018-09-26T09:22:25.305Z,10
2018-09-26T09:27:22.337Z,10
2018-09-26T09:32:19.594Z,10.1
2018-09-26T09:37:17.219Z,10.1
2018-09-26T09:42:14.424Z,10.2
2018-09-26T09:47:11.429Z,10.3
2018-09-26T09:52:08.757Z,10.4
2018-09-26T09:57:05.949Z,10.4
2018-09-26T10:02:03.028Z,10.4
2018-09-26T10:07:00.344Z,10.4
2018-09-26T10:11:57.582Z,10.5
2018-09-26T10:16:54.883Z,10.6
2018-09-26T10:21:52.090Z,10.6
2018-09-26T10:26:49.169Z,10.6
2018-09-26T10:31:46.332Z,10.7
2018-09-26T10:36:43.749Z,11.3
2018-09-26T10:41:40.748Z,10.8
2018-09-26T10:46:38.059Z,11.4
2018-09-26T10:51:35.341Z,10.8
2018-09-26T10:56:32.808Z,10.9
2018-09-26T11:01:30.025Z,11.5
2018-09-26T11:06:27.239Z,11
2018-09-26T11:11:24.440Z,11.6
2018-09-26T11:16:21.568Z,11.6
2018-09-26T11:21:18.916Z,11.7
2018-09-26T11:26:16.034Z,11.7
2018-09-26T11:31:13.243Z,11.8
2018-09-26T11:36:10.441Z,11.3
2018-09-26T11:41:07.801Z,11.9
2018-09-26T11:46:04.323Z,11.4
2018-09-26T11:51:01.555Z,11.3
2018-09-26T11:55:58.807Z,11.4
2018-09-26T12:00:56.319Z,11.5
2018-09-26T12:05:53.469Z,11.6
2018-09-26T12:10:51.038Z,11.5
2018-09-26T12:15:48.214Z,12.1
2018-09-26T12:20:45.607Z,11.6
2018-09-26T12:25:42.710Z,12.2
2018-09-26T12:30:39.620Z,11.6
2018-09-26T12:35:36.655Z,12.3
2018-09-26T12:40:33.824Z,11.7
2018-09-26T12:45:31.410Z,12.3
2018-09-26T12:50:28.083Z,12.4
2018-09-26T12:55:25.311Z,11.9
2018-09-26T13:00:23.079Z,11.6
2018-09-26T13:05:20.625Z,12.5
2018-09-26T13:10:18.478Z,12
2018-09-26T13:15:15.847Z,12.6
2018-09-26T13:20:12.671Z,12
2018-09-26T13:25:09.924Z,12.6
2018-09-26T13:30:07.147Z,12.1
2018-09-26T13:35:04.393Z,12.7
2018-09-26T13:40:01.506Z,12.8
2018-09-26T13:44:58.524Z,12.8
2018-09-26T13:49:55.732Z,12.9
2018-09-26T13:54:53.045Z,12.3
2018-09-26T13:59:50.363Z,12.3
2018-09-26T14:04:47.290Z,13
2018-09-26T14:09:44.425Z,12.4
2018-09-26T14:14:41.628Z,13.1
2018-09-26T14:19:38.779Z,12.5
2018-09-26T14:24:35.977Z,13.1
2018-09-26T14:29:33.175Z,13.2
2018-09-26T14:34:30.415Z,12.6
2018-09-26T14:39:27.804Z,12.7
2018-09-26T14:44:25.540Z,13.3
2018-09-26T14:49:22.929Z,13.3
2018-09-26T14:54:19.935Z,13.3
2018-09-26T14:59:17.274Z,13.4
2018-09-26T15:04:14.625Z,13.4
2018-09-26T15:09:11.947Z,12.9
2018-09-26T15:14:09.152Z,13.4
2018-09-26T15:19:06.257Z,12.9
2018-09-26T15:24:03.442Z,12.9
2018-09-26T15:29:00.827Z,12.9
2018-09-26T15:33:58.106Z,13
2018-09-26T15:38:55.266Z,13.5
2018-09-26T15:43:52.537Z,13.5
2018-09-26T15:48:49.690Z,12.9
2018-09-26T15:53:46.976Z,13.5
2018-09-26T15:58:44.322Z,13
2018-09-26T16:03:41.401Z,13.5
2018-09-26T16:08:38.393Z,13
2018-09-26T16:13:35.595Z,13.5
2018-09-26T16:18:32.777Z,13
2018-09-26T16:23:30.020Z,13.5
2018-09-26T16:28:27.338Z,13.5
2018-09-26T16:33:24.677Z,13.5
2018-09-26T16:38:21.934Z,13
2018-09-26T16:43:19.274Z,13.5
2018-09-26T16:48:16.420Z,12.9
2018-09-26T16:53:13.574Z,13.5
2018-09-26T16:58:10.812Z,12.9
2018-09-26T17:03:07.781Z,12.8
2018-09-26T17:08:05.069Z,12.8
2018-09-26T17:13:02.258Z,13.4
2018-09-26T17:17:59.520Z,12.7
2018-09-26T17:22:56.799Z,12.7
2018-09-26T17:27:54.017Z,12.7
2018-09-26T17:32:51.220Z,12.6
2018-09-26T17:37:48.451Z,12.6
2018-09-26T17:42:46.062Z,12.6
2018-09-26T17:47:43.133Z,12.5
2018-09-26T17:52:39.837Z,12.6
2018-09-26T17:57:37.108Z,13.1
2018-09-26T18:02:34.241Z,13.1
2018-09-26T18:07:31.285Z,12.4
2018-09-26T18:12:28.277Z,12.4
2018-09-26T18:17:25.586Z,12.4
2018-09-26T18:22:22.741Z,12.3
2018-09-26T18:27:19.860Z,12.3
2018-09-26T18:32:16.967Z,12.4
2018-09-26T18:37:14.176Z,12.2
2018-09-26T18:42:11.347Z,12.3
2018-09-26T18:47:08.493Z,12.2
2018-09-26T18:52:05.685Z,12.1
2018-09-26T18:57:03.104Z,12.1
2018-09-26T19:02:00.059Z,12.1
2018-09-26T19:06:57.201Z,12
2018-09-26T19:11:53.944Z,12
2018-09-26T19:16:51.266Z,11.9
2018-09-26T19:21:48.510Z,11.9
2018-09-26T19:26:45.650Z,11.9
2018-09-26T19:31:43.020Z,12.4
2018-09-26T19:36:39.989Z,11.8
2018-09-26T19:41:37.364Z,11.8
2018-09-26T19:46:34.015Z,11.6
2018-09-26T19:51:31.401Z,11.7
2018-09-26T19:56:28.661Z,11.6
2018-09-26T20:01:25.860Z,12.2
2018-09-26T20:06:22.887Z,11.6
2018-09-26T20:11:20.088Z,12.1
2018-09-26T20:16:17.374Z,11.4
2018-09-26T20:21:14.626Z,12
2018-09-26T20:26:11.861Z,11.4
2018-09-26T20:31:08.896Z,11.4
2018-09-26T20:36:06.325Z,11.3
2018-09-26T20:41:03.540Z,11.2
2018-09-26T20:46:00.808Z,11.2
2018-09-26T20:50:58.099Z,11.7
2018-09-26T20:55:55.025Z,11.1
2018-09-26T21:00:52.412Z,11.1
2018-09-26T21:05:49.612Z,11
2018-09-26T21:10:46.705Z,11
2018-09-26T21:15:43.189Z,11
2018-09-26T21:20:40.490Z,10.9
2018-09-26T21:25:37.523Z,10.8
2018-09-26T21:30:34.758Z,10.8
2018-09-26T21:35:31.933Z,10.8
2018-09-26T21:40:29.194Z,10.7
2018-09-26T21:45:25.833Z,10.7
2018-09-26T21:50:22.948Z,10.7
2018-09-26T21:55:19.631Z,10.7
2018-09-26T22:00:16.949Z,10.9
2018-09-26T22:05:14.097Z,10.5
2018-09-26T22:10:11.393Z,10.5
2018-09-26T22:15:08.295Z,11.1
2018-09-26T22:20:05.536Z,10.4
2018-09-26T22:25:02.681Z,10.4
2018-09-26T22:29:59.736Z,11
2018-09-26T22:34:57.041Z,10.9
2018-09-26T22:39:54.161Z,10.9
2018-09-26T22:44:50.997Z,10.8
2018-09-26T22:49:47.945Z,10.2
2018-09-26T22:54:45.039Z,10.1
2018-09-26T22:59:42.228Z,10.1
2018-09-26T23:04:39.433Z,10.1
2018-09-26T23:09:36.747Z,10.1
2018-09-26T23:14:34.080Z,10.6
2018-09-26T23:19:31.199Z,10
2018-09-26T23:24:28.430Z,9.9
2018-09-26T23:29:25.616Z,9.9
2018-09-26T23:34:22.675Z,9.8
2018-09-26T23:39:19.622Z,9.8
2018-09-26T23:44:16.791Z,10.4
2018-09-26T23:49:13.945Z,9.8
2018-09-26T23:54:10.665Z,9.6
2018-09-26T23:59:07.518Z,10
